createdAt,value
2023-03-30T00:01:37.775Z,100598.75
2023-03-30T00:08:20.304Z,100602.22
2023-03-30T00:15:02.701Z,100602.22
2023-03-30T00:21:45.492Z,100596.13
2023-03-30T00:28:30.730Z,100585.66
2023-03-30T00:35:15.105Z,100583.91
2023-03-30T00:41:57.615Z,100579.56
2023-03-30T00:48:40.743Z,100571.72
2023-03-30T00:55:25.992Z,100573.44
2023-03-30T01:02:08.624Z,100576.06
2023-03-30T01:08:54.222Z,100562.09
2023-03-30T01:16:02.783Z,100556.84
2023-03-30T01:23:35.402Z,100556.88
2023-03-30T01:30:57.969Z,100552.50
2023-03-30T01:38:16.981Z,100550.75
2023-03-30T01:45:30.116Z,100546.38
2023-03-30T01:52:18.663Z,100549.00
2023-03-30T01:59:15.749Z,100540.28
2023-03-30T02:06:04.850Z,100541.13
2023-03-30T02:12:47.742Z,100539.41
2023-03-30T02:19:30.590Z,100530.66
2023-03-30T02:26:13.709Z,100535.03
2023-03-30T02:32:57.149Z,100535.03
2023-03-30T02:40:38.056Z,100536.78
2023-03-30T02:47:49.465Z,100526.34
2023-03-30T02:54:45.540Z,100513.25
2023-03-30T03:01:45.908Z,100508.03
2023-03-30T03:08:40.043Z,100507.16
2023-03-30T03:15:25.254Z,100508.94
2023-03-30T03:22:21.597Z,100494.09
2023-03-30T03:29:03.932Z,100485.38
2023-03-30T03:35:47.239Z,100482.78
2023-03-30T03:42:30.924Z,100473.22
2023-03-30T03:49:25.780Z,100472.38
2023-03-30T03:56:08.691Z,100468.03
2023-03-30T04:02:51.442Z,100454.97
2023-03-30T04:09:33.867Z,100455.88
2023-03-30T04:16:31.335Z,100457.63
2023-03-30T04:23:45.751Z,100447.19
2023-03-30T04:30:51.377Z,100441.91
2023-03-30T04:38:02.300Z,100446.28
2023-03-30T04:45:21.107Z,100433.19
2023-03-30T04:52:22.687Z,100420.06
2023-03-30T04:59:28.035Z,100424.41
2023-03-30T05:06:13.095Z,100415.66
2023-03-30T05:13:12.838Z,100418.25
2023-03-30T05:20:18.326Z,100412.13
2023-03-30T05:27:14.409Z,100419.91
2023-03-30T05:34:08.415Z,100409.38
2023-03-30T05:41:05.564Z,100418.91
2023-03-30T05:48:07.433Z,100404.88
2023-03-30T05:55:08.741Z,100394.31
2023-03-30T06:02:12.936Z,100403.84
2023-03-30T06:08:55.986Z,100403.81
2023-03-30T06:15:44.746Z,100399.44
2023-03-30T06:22:32.619Z,100396.72
2023-03-30T06:29:27.167Z,100395.66
2023-03-30T06:36:14.720Z,100390.25
2023-03-30T06:42:59.723Z,100396.31
2023-03-30T06:50:02.853Z,100401.47
2023-03-30T06:57:23.562Z,100399.59
2023-03-30T07:04:06.080Z,100398.56
2023-03-30T07:11:14.196Z,100395.75
2023-03-30T07:17:56.600Z,100390.25
2023-03-30T07:24:38.997Z,100379.47
2023-03-30T07:31:21.980Z,100370.47
2023-03-30T07:38:05.140Z,100366.72
2023-03-30T07:44:50.980Z,100372.59
2023-03-30T07:51:35.706Z,100366.22
2023-03-30T07:58:26.621Z,100357.25
2023-03-30T08:05:09.777Z,100344.81
2023-03-30T08:12:04.902Z,100344.63
2023-03-30T08:18:47.376Z,100334.03
2023-03-30T08:25:30.049Z,100326.03
2023-03-30T08:32:12.297Z,100326.78
2023-03-30T08:38:55.576Z,100313.56
2023-03-30T08:45:42.665Z,100305.16
2023-03-30T08:52:26.509Z,100299.22
2023-03-30T08:59:58.808Z,100291.41
2023-03-30T09:06:58.759Z,100288.63
2023-03-30T09:13:45.448Z,100287.84
2023-03-30T09:20:34.798Z,100283.75
2023-03-30T09:27:45.500Z,100261.91
2023-03-30T09:35:00.935Z,100258.38
2023-03-30T09:42:21.247Z,100226.19
2023-03-30T09:49:17.157Z,100220.75
2023-03-30T09:56:29.355Z,100211.59
2023-03-30T10:03:23.553Z,100188.91
2023-03-30T10:10:31.230Z,100167.09
2023-03-30T10:17:24.729Z,100164.41
2023-03-30T10:24:24.348Z,100158.28
2023-03-30T10:31:16.865Z,100154.94
2023-03-30T10:38:03.346Z,100144.69
2023-03-30T10:44:51.668Z,100144.22
2023-03-30T10:52:03.633Z,100151.81
2023-03-30T10:58:57.715Z,100148.53
2023-03-30T11:05:49.646Z,100132.88
2023-03-30T11:12:41.003Z,100127.91
2023-03-30T11:19:32.695Z,100109.59
2023-03-30T11:26:40.947Z,100091.72
2023-03-30T11:33:45.599Z,100076.59
2023-03-30T11:40:46.525Z,100077.13
2023-03-30T11:47:52.605Z,100083.16
2023-03-30T11:55:02.257Z,100086.44
2023-03-30T12:02:22.650Z,100076.03
2023-03-30T12:09:28.059Z,100067.19
2023-03-30T12:16:46.820Z,100055.47
2023-03-30T12:23:54.544Z,100050.78
2023-03-30T12:30:53.665Z,100048.78
2023-03-30T12:37:38.037Z,100044.00
2023-03-30T12:44:44.690Z,100036.66
2023-03-30T12:52:01.947Z,100017.13
2023-03-30T12:59:08.997Z,99979.16
2023-03-30T13:05:54.331Z,99989.66
2023-03-30T13:12:41.108Z,99993.56
2023-03-30T13:19:29.089Z,99994.09
2023-03-30T13:33:18.301Z,99959.78
2023-03-30T13:40:08.784Z,99930.69
2023-03-30T13:47:12.061Z,99925.38
2023-03-30T13:54:31.960Z,99938.69
2023-03-30T14:01:19.529Z,99926.75
2023-03-30T14:08:01.920Z,99906.75
2023-03-30T14:14:48.439Z,99887.59
2023-03-30T14:21:34.065Z,99881.59
2023-03-30T14:28:20.536Z,99878.03
2023-03-30T14:35:08.465Z,99885.72
2023-03-30T14:41:52.036Z,99878.47
2023-03-30T14:48:39.095Z,99866.19
2023-03-30T14:55:26.358Z,99843.59
2023-03-30T15:02:33.345Z,99840.28
2023-03-30T15:09:22.791Z,99828.16
2023-03-30T15:16:06.541Z,99812.47
2023-03-30T15:22:54.247Z,99800.25
2023-03-30T15:29:39.064Z,99795.94
2023-03-30T15:36:34.006Z,99779.22
2023-03-30T15:43:30.174Z,99773.94
2023-03-30T15:50:14.586Z,99776.69
2023-03-30T15:57:13.267Z,99754.03
2023-03-30T16:04:01.975Z,99748.88
2023-03-30T16:10:45.229Z,99731.38
2023-03-30T16:17:27.504Z,99723.59
2023-03-30T16:24:09.772Z,99711.56
2023-03-30T16:30:55.618Z,99693.25
2023-03-30T16:37:38.730Z,99684.69
2023-03-30T16:44:23.794Z,99680.41
2023-03-30T16:51:07.984Z,99687.41
2023-03-30T16:57:50.394Z,99681.41
2023-03-30T17:04:32.554Z,99684.19
2023-03-30T17:11:15.924Z,99688.69
2023-03-30T17:17:58.188Z,99673.88
2023-03-30T17:24:40.563Z,99678.38
2023-03-30T17:31:23.467Z,99665.25
2023-03-30T17:38:09.145Z,99661.88
2023-03-30T17:44:51.288Z,99662.84
2023-03-30T17:51:33.447Z,99661.97
2023-03-30T17:58:32.780Z,99654.13
2023-03-30T18:05:16.293Z,99648.13
2023-03-30T18:11:58.477Z,99645.59
2023-03-30T18:18:40.896Z,99626.41
2023-03-30T18:25:32.042Z,99623.00
2023-03-30T18:32:15.398Z,99623.94
2023-03-30T18:39:00.337Z,99617.81
2023-03-30T18:45:45.660Z,99617.88
2023-03-30T18:52:29.069Z,99603.09
2023-03-30T18:59:11.797Z,99596.19
2023-03-30T19:05:54.377Z,99587.47
2023-03-30T19:12:36.612Z,99584.03
2023-03-30T19:19:18.878Z,99579.75
2023-03-30T19:26:01.103Z,99572.78
2023-03-30T19:32:45.714Z,99565.88
2023-03-30T19:39:27.903Z,99558.19
2023-03-30T19:46:10.149Z,99553.91
2023-03-30T19:52:52.498Z,99554.00
2023-03-30T19:59:34.728Z,99547.91
2023-03-30T20:06:16.895Z,99547.97
2023-03-30T20:12:59.024Z,99541.94
2023-03-30T20:19:42.718Z,99557.72
2023-03-30T20:26:25.082Z,99555.22
2023-03-30T20:33:08.922Z,99552.69
2023-03-30T20:39:51.361Z,99564.09
2023-03-30T20:46:36.218Z,99557.09
2023-03-30T20:53:19.350Z,99552.69
2023-03-30T21:00:01.569Z,99547.38
2023-03-30T21:06:44.393Z,99543.84
2023-03-30T21:13:26.986Z,99537.75
2023-03-30T21:20:11.105Z,99541.34
2023-03-30T21:26:53.219Z,99539.75
2023-03-30T21:33:36.665Z,99537.13
2023-03-30T21:40:19.045Z,99537.16
2023-03-30T21:47:01.494Z,99547.69
2023-03-30T21:53:48.227Z,99544.25
2023-03-30T22:00:30.556Z,99524.16
2023-03-30T22:07:12.719Z,99532.13
2023-03-30T22:13:55.458Z,99521.66
2023-03-30T22:20:40.037Z,99526.91
2023-03-30T22:27:22.821Z,99520.81
2023-03-30T22:34:05.630Z,99519.97
2023-03-30T22:40:47.757Z,99532.25
2023-03-30T22:47:29.972Z,99528.75
2023-03-30T22:54:12.222Z,99541.84
2023-03-30T23:01:07.071Z,99526.88
2023-03-30T23:07:50.553Z,99531.16
2023-03-30T23:14:32.781Z,99531.94
2023-03-30T23:21:14.944Z,99524.94
2023-03-30T23:27:58.070Z,99529.28
2023-03-30T23:34:40.825Z,99533.59
2023-03-30T23:41:23.869Z,99541.47
2023-03-30T23:48:06.562Z,99540.63
2023-03-30T23:54:52.384Z,99530.09
